createdAt,value
2019-04-28T00:01:35.531Z,10.83
2019-04-28T00:04:05.269Z,8.57
2019-04-28T00:06:34.985Z,11.93
2019-04-28T00:09:06.250Z,14.00
2019-04-28T00:11:36.159Z,15.87
2019-04-28T00:14:08.235Z,17.93
2019-04-28T00:16:37.409Z,10.33
2019-04-28T00:19:07.283Z,6.87
2019-04-28T00:21:58.239Z,12.23
2019-04-28T00:24:55.921Z,9.30
2019-04-28T00:27:25.727Z,7.43
2019-04-28T00:29:55.431Z,12.70
2019-04-28T00:32:25.287Z,7.40
2019-04-28T00:34:55.169Z,13.10
2019-04-28T00:37:32.873Z,9.33
2019-04-28T00:40:02.683Z,9.87
2019-04-28T00:42:32.554Z,9.47
2019-04-28T00:45:02.362Z,9.83
2019-04-28T00:47:32.150Z,13.83
2019-04-28T00:50:02.290Z,12.03
2019-04-28T00:52:32.159Z,13.63
2019-04-28T00:55:02.012Z,9.60
2019-04-28T00:57:31.763Z,7.80
2019-04-28T01:00:02.421Z,10.37
2019-04-28T01:02:41.421Z,13.33
2019-04-28T01:05:11.454Z,13.70
2019-04-28T01:07:41.537Z,12.67
2019-04-28T01:10:13.125Z,6.73
2019-04-28T01:12:42.855Z,6.93
2019-04-28T01:15:39.653Z,11.23
2019-04-28T01:18:22.170Z,6.97
2019-04-28T01:20:51.887Z,9.33
2019-04-28T01:23:21.825Z,9.70
2019-04-28T01:25:51.591Z,6.50
2019-04-28T01:28:21.340Z,8.47
2019-04-28T01:31:21.106Z,8.13
2019-04-28T01:34:10.347Z,9.57
2019-04-28T01:36:40.444Z,10.53
2019-04-28T01:39:10.281Z,3.77
2019-04-28T01:41:40.025Z,9.00
2019-04-28T01:44:10.282Z,7.90
2019-04-28T01:46:40.222Z,7.63
2019-04-28T01:49:10.001Z,7.50
2019-04-28T01:51:41.469Z,8.17
2019-04-28T01:54:11.796Z,10.97
2019-04-28T01:56:41.584Z,5.43
2019-04-28T01:59:11.286Z,8.73
2019-04-28T02:01:41.143Z,6.00
2019-04-28T02:04:10.867Z,7.03
2019-04-28T02:06:40.568Z,7.30
2019-04-28T02:09:10.599Z,4.63
2019-04-28T02:11:41.274Z,5.07
2019-04-28T02:14:11.067Z,7.50
2019-04-28T02:16:40.805Z,6.70
2019-04-28T02:19:10.783Z,5.43
2019-04-28T02:21:55.322Z,5.87
2019-04-28T02:24:32.241Z,3.77
2019-04-28T02:27:02.078Z,4.70
2019-04-28T02:29:32.050Z,4.90
2019-04-28T02:32:02.593Z,8.03
2019-04-28T02:34:32.440Z,8.63
2019-04-28T02:37:02.344Z,3.83
2019-04-28T02:39:32.056Z,3.43
2019-04-28T02:42:02.039Z,3.93
2019-04-28T02:44:35.076Z,4.70
2019-04-28T02:47:03.446Z,4.83
2019-04-28T02:49:57.053Z,4.53
2019-04-28T02:52:44.258Z,7.57
2019-04-28T02:55:14.145Z,8.50
2019-04-28T02:57:43.911Z,7.00
2019-04-28T03:00:13.903Z,8.60
2019-04-28T03:02:43.762Z,5.23
2019-04-28T03:05:13.555Z,7.33
2019-04-28T03:07:43.418Z,6.23
2019-04-28T03:10:13.205Z,8.20
2019-04-28T03:12:43.160Z,4.93
2019-04-28T03:15:13.006Z,4.13
2019-04-28T03:17:42.753Z,5.03
2019-04-28T03:20:12.973Z,6.10
2019-04-28T03:22:42.737Z,6.60
2019-04-28T03:25:20.499Z,6.83
2019-04-28T03:28:05.545Z,4.13
2019-04-28T03:31:36.893Z,3.73
2019-04-28T03:33:48.259Z,3.83
2019-04-28T03:36:15.597Z,4.83
2019-04-28T03:38:44.489Z,4.97
2019-04-28T03:41:14.312Z,7.97
2019-04-28T03:43:44.129Z,10.27
2019-04-28T03:46:20.566Z,7.93
2019-04-28T03:48:50.967Z,4.50
2019-04-28T03:51:21.330Z,8.23
2019-04-28T03:53:51.330Z,9.67
2019-04-28T03:56:21.107Z,8.07
2019-04-28T03:58:50.928Z,7.03
2019-04-28T04:01:20.939Z,5.10
2019-04-28T04:03:51.601Z,4.23
2019-04-28T04:06:22.693Z,11.90
2019-04-28T04:08:52.721Z,6.63
2019-04-28T04:11:35.259Z,8.57
2019-04-28T04:14:27.062Z,6.07
2019-04-28T04:17:05.233Z,8.33
2019-04-28T04:19:36.293Z,7.63
2019-04-28T04:22:06.154Z,7.47
2019-04-28T04:24:35.971Z,5.73
2019-04-28T04:27:05.667Z,10.00
2019-04-28T04:29:35.384Z,6.70
2019-04-28T04:32:15.559Z,10.50
2019-04-28T04:34:40.529Z,11.10
2019-04-28T04:37:12.212Z,8.73
2019-04-28T04:39:41.049Z,8.93
2019-04-28T04:42:10.872Z,7.23
2019-04-28T04:44:41.537Z,6.23
2019-04-28T04:47:12.502Z,8.80
2019-04-28T04:49:42.454Z,11.77
2019-04-28T04:52:12.593Z,13.43
2019-04-28T04:54:42.508Z,8.97
2019-04-28T04:57:12.448Z,8.43
2019-04-28T04:59:42.278Z,11.97
2019-04-28T05:02:29.320Z,15.93
2019-04-28T05:05:00.332Z,7.83
2019-04-28T05:07:40.232Z,8.83
2019-04-28T05:10:13.297Z,7.00
2019-04-28T05:12:45.005Z,8.07
2019-04-28T05:15:18.111Z,7.83
2019-04-28T05:17:50.127Z,8.57
2019-04-28T05:20:20.549Z,9.77
2019-04-28T05:23:00.638Z,5.37
2019-04-28T05:25:39.657Z,11.20
2019-04-28T05:28:10.497Z,7.10
2019-04-28T05:30:43.077Z,6.73
2019-04-28T05:33:30.661Z,8.73
2019-04-28T05:36:02.843Z,7.60
2019-04-28T05:38:31.000Z,12.13
2019-04-28T05:41:02.692Z,8.03
2019-04-28T05:43:35.441Z,7.77
2019-04-28T05:46:05.706Z,5.83
2019-04-28T05:48:51.535Z,10.57
2019-04-28T05:51:24.918Z,9.63
2019-04-28T05:54:14.939Z,12.90
2019-04-28T05:57:05.626Z,10.67
2019-04-28T05:59:50.656Z,15.00
2019-04-28T06:02:30.545Z,15.03
2019-04-28T06:05:00.205Z,15.53
2019-04-28T06:07:40.421Z,15.47
2019-04-28T06:10:17.289Z,11.60
2019-04-28T06:12:47.211Z,12.00
2019-04-28T06:15:17.413Z,18.73
2019-04-28T06:17:49.858Z,14.07
2019-04-28T06:20:20.250Z,12.13
2019-04-28T06:22:50.633Z,13.37
2019-04-28T06:25:20.727Z,12.47
2019-04-28T06:31:30.931Z,14.50
2019-04-28T06:34:00.697Z,12.13
2019-04-28T06:36:30.454Z,11.47
2019-04-28T06:39:00.202Z,14.20
2019-04-28T06:45:40.774Z,14.37
2019-04-28T06:51:35.787Z,10.47
2019-04-28T06:54:05.575Z,12.57
2019-04-28T06:56:35.399Z,15.70
2019-04-28T06:59:05.450Z,16.77
2019-04-28T07:01:35.267Z,10.23
2019-04-28T07:04:05.123Z,16.73
2019-04-28T07:06:34.875Z,12.93
2019-04-28T07:09:06.666Z,12.40
2019-04-28T07:11:36.347Z,15.20
2019-04-28T07:14:06.126Z,11.10
2019-04-28T07:16:35.942Z,13.50
2019-04-28T07:19:05.617Z,10.90
2019-04-28T07:21:43.236Z,8.03
2019-04-28T07:24:13.120Z,8.90
2019-04-28T07:26:42.824Z,11.87
2019-04-28T07:29:13.425Z,11.67
2019-04-28T07:31:43.248Z,9.27
2019-04-28T07:34:13.078Z,11.40
2019-04-28T07:36:43.610Z,11.03
2019-04-28T07:39:13.420Z,11.63
2019-04-28T07:41:43.213Z,13.20
2019-04-28T07:44:13.255Z,12.00
2019-04-28T07:46:43.030Z,8.80
2019-04-28T07:49:12.795Z,12.20
2019-04-28T07:52:01.595Z,11.20
2019-04-28T07:54:31.406Z,9.23
2019-04-28T07:57:01.085Z,13.03
2019-04-28T07:59:30.932Z,10.80
2019-04-28T08:02:00.767Z,7.73
2019-04-28T08:04:30.509Z,11.67
2019-04-28T08:07:00.323Z,15.70
2019-04-28T08:09:30.086Z,12.67
2019-04-28T08:11:59.909Z,10.80
2019-04-28T08:14:29.656Z,9.43
2019-04-28T08:16:59.442Z,10.73
2019-04-28T08:19:29.237Z,9.73
2019-04-28T08:21:59.036Z,7.27
2019-04-28T08:24:28.851Z,8.63
2019-04-28T08:26:58.790Z,9.00
2019-04-28T08:29:28.652Z,9.63
2019-04-28T08:32:15.585Z,8.07
2019-04-28T08:34:45.322Z,9.73
2019-04-28T08:37:15.096Z,11.50
2019-04-28T08:39:45.046Z,9.47
2019-04-28T08:42:14.718Z,8.57
2019-04-28T08:44:45.126Z,9.40
2019-04-28T08:47:15.120Z,7.43
2019-04-28T08:49:44.883Z,6.33
2019-04-28T08:52:14.702Z,5.63
2019-04-28T08:54:44.574Z,7.27
2019-04-28T08:57:14.538Z,9.33
2019-04-28T08:59:44.316Z,5.40
2019-04-28T09:02:14.213Z,6.00
2019-04-28T09:04:44.012Z,10.00
2019-04-28T09:07:13.823Z,6.80
2019-04-28T09:09:43.604Z,8.67
2019-04-28T09:12:13.415Z,5.30
2019-04-28T09:14:43.149Z,8.23
2019-04-28T09:17:13.022Z,7.10
2019-04-28T09:19:42.899Z,5.23
2019-04-28T09:22:12.668Z,7.47
2019-04-28T09:24:42.437Z,6.77
2019-04-28T09:27:12.197Z,9.60
2019-04-28T09:29:42.023Z,6.23
2019-04-28T09:32:11.891Z,6.87
2019-04-28T09:34:41.730Z,9.00
2019-04-28T09:37:11.551Z,6.80
2019-04-28T09:39:51.864Z,5.03
2019-04-28T09:42:39.015Z,5.20
2019-04-28T09:45:15.091Z,7.23
2019-04-28T09:47:45.293Z,6.27
2019-04-28T09:50:15.265Z,6.30
2019-04-28T09:52:45.129Z,5.53
2019-04-28T09:55:14.998Z,8.57
2019-04-28T09:57:44.664Z,10.10
2019-04-28T10:00:15.317Z,5.73
2019-04-28T10:02:45.153Z,7.90
2019-04-28T10:05:14.906Z,9.60
2019-04-28T10:07:44.603Z,7.20
2019-04-28T10:10:14.953Z,7.97
2019-04-28T10:12:44.728Z,6.13
2019-04-28T10:15:14.921Z,6.17
2019-04-28T10:17:44.688Z,6.10
2019-04-28T10:20:15.053Z,8.00
2019-04-28T10:22:44.789Z,7.33
2019-04-28T10:25:14.759Z,6.60
2019-04-28T10:27:44.527Z,12.83
2019-04-28T10:30:14.599Z,6.20
2019-04-28T10:32:44.259Z,5.50
2019-04-28T10:35:15.593Z,6.90
2019-04-28T10:37:45.750Z,6.07
2019-04-28T10:40:44.163Z,6.03
2019-04-28T10:43:13.952Z,6.60
2019-04-28T10:45:46.570Z,6.13
2019-04-28T10:48:16.422Z,8.23
2019-04-28T10:50:46.269Z,8.67
2019-04-28T10:53:16.156Z,9.87
2019-04-28T10:55:45.957Z,8.77
2019-04-28T10:58:15.853Z,9.93
2019-04-28T11:00:45.709Z,8.23
2019-04-28T11:03:15.532Z,10.57
2019-04-28T11:05:45.866Z,8.27
2019-04-28T11:08:49.581Z,10.10
2019-04-28T11:11:28.780Z,10.20
2019-04-28T11:13:58.651Z,8.10
2019-04-28T11:16:32.490Z,9.03
2019-04-28T11:19:02.335Z,8.83
2019-04-28T11:21:32.047Z,8.03
2019-04-28T11:24:01.762Z,8.60
2019-04-28T11:26:31.593Z,9.07
2019-04-28T11:29:01.505Z,9.73
2019-04-28T11:31:31.307Z,8.97
2019-04-28T11:34:13.327Z,9.60
2019-04-28T11:36:43.196Z,12.50
2019-04-28T11:39:17.624Z,7.93
2019-04-28T11:41:47.513Z,7.93
2019-04-28T11:44:17.288Z,6.90
2019-04-28T11:46:47.059Z,12.40
2019-04-28T11:49:16.816Z,7.37
2019-04-28T11:51:46.529Z,8.20
2019-04-28T11:54:16.683Z,9.00
2019-04-28T11:56:46.544Z,8.10
2019-04-28T11:59:16.490Z,9.33
2019-04-28T12:01:47.055Z,6.40
2019-04-28T12:04:21.105Z,6.43
2019-04-28T12:06:51.356Z,6.10
2019-04-28T12:09:35.765Z,9.37
2019-04-28T12:12:09.360Z,7.30
2019-04-28T12:15:01.077Z,6.37
2019-04-28T12:17:45.850Z,6.53
2019-04-28T12:20:21.095Z,8.27
2019-04-28T12:22:50.776Z,8.70
2019-04-28T12:25:20.492Z,9.53
2019-04-28T12:27:50.208Z,6.87
2019-04-28T12:30:19.998Z,9.57
2019-04-28T12:32:49.833Z,7.30
2019-04-28T12:35:19.586Z,8.27
2019-04-28T12:37:49.388Z,8.17
2019-04-28T12:40:19.255Z,6.07
2019-04-28T12:42:48.990Z,8.30
2019-04-28T12:45:18.761Z,12.20
2019-04-28T12:47:48.400Z,8.43
2019-04-28T12:50:23.974Z,7.27
2019-04-28T12:52:53.650Z,7.90
2019-04-28T12:55:23.460Z,8.40
2019-04-28T12:57:53.264Z,7.27
2019-04-28T13:00:43.460Z,7.03
2019-04-28T13:03:32.298Z,7.90
2019-04-28T13:06:05.785Z,6.40
2019-04-28T13:08:38.034Z,7.60
2019-04-28T13:11:07.775Z,5.57
2019-04-28T13:13:37.531Z,7.00
2019-04-28T13:16:07.389Z,6.60
2019-04-28T13:18:37.636Z,7.07
2019-04-28T13:21:07.396Z,7.87
2019-04-28T13:23:37.109Z,7.33
2019-04-28T13:26:06.950Z,8.13
2019-04-28T13:28:36.804Z,7.50
2019-04-28T13:31:06.736Z,6.97
2019-04-28T13:33:36.540Z,6.03
2019-04-28T13:36:14.720Z,6.07
2019-04-28T13:38:37.701Z,7.33
2019-04-28T13:41:07.425Z,9.17
2019-04-28T13:43:37.215Z,4.87
2019-04-28T13:46:07.144Z,5.63
2019-04-28T13:48:37.034Z,8.20
2019-04-28T13:51:06.914Z,5.30
2019-04-28T13:53:36.718Z,6.00
2019-04-28T13:56:06.517Z,6.23
2019-04-28T13:58:45.501Z,7.00
2019-04-28T14:01:37.310Z,5.33
2019-04-28T14:04:26.144Z,6.47
2019-04-28T14:06:59.562Z,5.70
2019-04-28T14:09:29.343Z,7.03
2019-04-28T14:11:59.041Z,6.47
2019-04-28T14:14:28.829Z,6.53
2019-04-28T14:16:58.571Z,7.00
2019-04-28T14:19:28.415Z,8.07
2019-04-28T14:21:58.135Z,5.93
2019-04-28T14:24:27.864Z,7.03
2019-04-28T14:26:57.698Z,7.23
2019-04-28T14:29:27.566Z,6.77
2019-04-28T14:31:57.323Z,6.20
2019-04-28T14:34:27.039Z,6.93
2019-04-28T14:36:56.714Z,8.30
2019-04-28T14:39:26.534Z,6.33
2019-04-28T14:41:56.273Z,7.97
2019-04-28T14:47:57.980Z,8.27
2019-04-28T14:50:27.728Z,6.63
2019-04-28T14:52:57.629Z,6.80
2019-04-28T14:55:27.426Z,6.73
2019-04-28T14:57:57.202Z,8.60
2019-04-28T15:00:33.497Z,6.20
2019-04-28T15:03:07.223Z,5.03
2019-04-28T15:06:18.278Z,5.53
2019-04-28T15:08:59.254Z,11.00
2019-04-28T15:11:39.138Z,6.00
2019-04-28T15:14:08.858Z,7.27
2019-04-28T15:16:38.656Z,8.97
2019-04-28T15:19:08.413Z,7.30
2019-04-28T15:21:38.236Z,5.20
2019-04-28T15:24:08.075Z,7.70
2019-04-28T15:26:37.859Z,6.10
2019-04-28T15:29:07.743Z,7.53
2019-04-28T15:31:37.865Z,7.30
2019-04-28T15:34:07.717Z,5.27
2019-04-28T15:36:37.595Z,5.77
2019-04-28T15:39:10.324Z,6.67
2019-04-28T15:41:40.071Z,5.60
2019-04-28T15:47:41.842Z,5.67
2019-04-28T15:50:11.754Z,5.90
2019-04-28T15:52:41.499Z,5.90
2019-04-28T15:55:13.471Z,7.97
2019-04-28T16:04:08.915Z,8.50
2019-04-28T16:06:38.679Z,9.07
2019-04-28T16:09:12.733Z,7.50
2019-04-28T16:11:45.541Z,7.93
2019-04-28T16:14:15.306Z,9.47
2019-04-28T16:16:45.260Z,10.30
2019-04-28T16:19:15.003Z,9.60
2019-04-28T16:21:44.893Z,7.73
2019-04-28T16:24:16.880Z,8.83
2019-04-28T16:26:47.204Z,9.43
2019-04-28T16:29:17.143Z,7.30
2019-04-28T16:31:47.451Z,7.50
2019-04-28T16:34:17.331Z,11.70
2019-04-28T16:36:47.230Z,10.70
2019-04-28T16:39:16.979Z,10.97
2019-04-28T16:41:51.433Z,8.57
2019-04-28T16:44:21.286Z,10.47
2019-04-28T16:46:51.134Z,11.70
2019-04-28T16:49:21.076Z,10.00
2019-04-28T16:51:50.770Z,10.07
2019-04-28T16:54:20.668Z,8.33
2019-04-28T16:57:06.762Z,12.37
2019-04-28T16:59:43.608Z,11.23
2019-04-28T17:02:38.717Z,7.83
2019-04-28T17:05:10.752Z,7.90
2019-04-28T17:07:52.010Z,9.47
2019-04-28T17:10:12.144Z,8.60
2019-04-28T17:12:42.137Z,9.03
2019-04-28T17:15:12.328Z,7.30
2019-04-28T17:17:42.145Z,7.77
2019-04-28T17:20:31.398Z,10.20
2019-04-28T17:23:15.766Z,7.80
2019-04-28T17:25:48.981Z,7.57
2019-04-28T17:28:22.353Z,7.50
2019-04-28T17:30:55.258Z,8.47
2019-04-28T17:33:27.178Z,8.03
2019-04-28T17:35:57.873Z,8.03
2019-04-28T17:38:28.714Z,8.67
2019-04-28T17:41:21.294Z,9.23
2019-04-28T17:43:54.921Z,5.73
2019-04-28T17:46:25.242Z,12.43
2019-04-28T17:49:02.399Z,9.30
2019-04-28T17:51:32.576Z,9.53
2019-04-28T17:54:12.200Z,9.87
2019-04-28T17:56:44.586Z,9.73
2019-04-28T17:59:14.825Z,8.77
2019-04-28T18:02:12.285Z,7.20
2019-04-28T18:05:17.427Z,8.20
2019-04-28T18:07:56.437Z,7.57
2019-04-28T18:10:31.611Z,8.40
2019-04-28T18:13:02.268Z,10.27
2019-04-28T18:16:07.942Z,10.33
2019-04-28T18:18:44.985Z,10.27
2019-04-28T18:21:15.048Z,11.27
2019-04-28T18:23:51.010Z,9.57
2019-04-28T18:26:24.842Z,10.80
2019-04-28T18:28:54.682Z,11.57
2019-04-28T18:32:00.931Z,8.87
2019-04-28T18:34:51.657Z,11.57
2019-04-28T18:37:43.494Z,11.73
2019-04-28T18:40:48.071Z,9.67
2019-04-28T18:43:24.738Z,12.33
2019-04-28T18:45:55.339Z,10.83
2019-04-28T18:48:27.373Z,13.27
2019-04-28T18:50:57.471Z,16.03
2019-04-28T18:53:28.070Z,9.70
2019-04-28T18:55:58.751Z,12.13
2019-04-28T18:58:32.313Z,12.53
2019-04-28T19:01:21.552Z,11.80
2019-04-28T19:03:53.865Z,11.87
2019-04-28T19:06:25.315Z,8.67
2019-04-28T19:09:07.259Z,14.70
2019-04-28T19:11:46.174Z,13.73
2019-04-28T19:14:44.948Z,11.97
2019-04-28T19:17:28.443Z,13.43
2019-04-28T19:19:59.454Z,12.13
2019-04-28T19:22:29.755Z,15.23
2019-04-28T19:25:03.256Z,15.90
2019-04-28T19:27:35.253Z,11.70
2019-04-28T19:33:45.150Z,10.83
2019-04-28T19:36:14.995Z,12.30
2019-04-28T19:38:44.839Z,12.83
2019-04-28T19:41:14.738Z,15.87
2019-04-28T19:47:21.773Z,13.53
2019-04-28T19:49:51.651Z,13.63
2019-04-28T19:52:21.477Z,10.73
2019-04-28T19:55:18.221Z,12.50
2019-04-28T20:04:01.521Z,13.47
2019-04-28T20:06:31.501Z,14.87
2019-04-28T20:09:01.293Z,12.83
2019-04-28T20:11:31.157Z,13.63
2019-04-28T20:14:00.981Z,14.33
2019-04-28T20:16:30.791Z,16.00
2019-04-28T20:19:00.825Z,15.97
2019-04-28T20:21:30.689Z,11.67
2019-04-28T20:24:00.773Z,11.63
2019-04-28T20:26:30.600Z,14.20
2019-04-28T20:32:45.756Z,15.97
2019-04-28T20:35:18.515Z,20.63
2019-04-28T20:38:02.624Z,15.97
2019-04-28T20:40:38.235Z,12.17
2019-04-28T20:43:18.955Z,13.90
2019-04-28T20:45:48.771Z,11.70
2019-04-28T20:48:18.688Z,11.97
2019-04-28T20:50:48.403Z,15.07
2019-04-28T20:53:19.403Z,11.77
2019-04-28T20:55:49.410Z,16.97
2019-04-28T21:02:30.962Z,15.57
2019-04-28T21:05:00.876Z,15.10
2019-04-28T21:07:30.759Z,12.07
2019-04-28T21:10:00.803Z,13.77
2019-04-28T21:12:30.686Z,15.20
2019-04-28T21:15:00.482Z,15.83
2019-04-28T21:17:30.411Z,10.33
2019-04-28T21:20:00.517Z,11.90
2019-04-28T21:22:30.486Z,20.27
2019-04-28T21:25:00.421Z,14.80
2019-04-28T21:27:30.278Z,13.47
2019-04-28T21:37:04.072Z,15.07
2019-04-28T21:39:33.910Z,14.17
2019-04-28T21:42:05.437Z,15.90
2019-04-28T21:44:53.088Z,16.60
2019-04-28T21:47:26.650Z,15.47
2019-04-28T21:49:56.499Z,19.67
2019-04-28T21:52:26.419Z,14.73
2019-04-28T21:54:56.428Z,15.63
2019-04-28T21:57:26.278Z,16.00
2019-04-28T22:03:28.114Z,23.00
2019-04-28T22:05:58.066Z,15.60
2019-04-28T22:08:27.992Z,18.67
2019-04-28T22:10:57.931Z,19.30
2019-04-28T22:13:27.934Z,16.50
2019-04-28T22:15:57.649Z,15.50
2019-04-28T22:18:27.579Z,20.23
2019-04-28T22:20:57.524Z,14.60
2019-04-28T22:23:36.563Z,19.53
2019-04-28T22:26:08.110Z,18.70
2019-04-28T22:28:37.970Z,19.90
2019-04-28T22:31:07.843Z,19.63
2019-04-28T22:33:37.738Z,14.93
2019-04-28T22:36:12.052Z,16.30
2019-04-28T22:38:42.098Z,15.17
2019-04-28T22:41:11.888Z,17.83
2019-04-28T22:43:41.800Z,18.43
2019-04-28T22:46:11.716Z,16.40
2019-04-28T22:48:41.470Z,18.13
2019-04-28T22:51:11.354Z,17.40
2019-04-28T22:53:41.152Z,12.60
2019-04-28T22:56:28.645Z,15.33
2019-04-28T22:59:03.301Z,14.97
2019-04-28T23:01:36.950Z,16.83
2019-04-28T23:04:22.299Z,19.73
2019-04-28T23:06:52.242Z,16.50
2019-04-28T23:09:22.140Z,19.43
2019-04-28T23:11:52.042Z,20.03
2019-04-28T23:18:02.594Z,15.60
2019-04-28T23:20:34.030Z,14.07
2019-04-28T23:23:05.579Z,18.57
2019-04-28T23:25:35.474Z,17.50
2019-04-28T23:28:05.462Z,19.03
2019-04-28T23:30:37.512Z,21.27
2019-04-28T23:33:07.440Z,18.93
2019-04-28T23:35:37.141Z,12.03
2019-04-28T23:38:06.906Z,19.60
2019-04-28T23:40:38.230Z,19.07
2019-04-28T23:43:11.840Z,19.27
2019-04-28T23:49:22.346Z,14.57
2019-04-28T23:52:11.210Z,15.07
2019-04-28T23:54:42.940Z,19.40
2019-04-28T23:57:12.876Z,16.73
2019-04-28T23:59:42.822Z,20.93
